createdAt,value
2018-04-17T00:02:17.701Z,10.40
2018-04-17T00:04:46.765Z,10.40
2018-04-17T00:07:14.345Z,10.30
2018-04-17T00:09:41.899Z,10.40
2018-04-17T00:12:09.468Z,10.30
2018-04-17T00:14:37.027Z,10.30
2018-04-17T00:17:06.111Z,10.30
2018-04-17T00:19:33.680Z,10.30
2018-04-17T00:22:01.336Z,10.30
2018-04-17T00:24:28.892Z,10.30
2018-04-17T00:26:56.468Z,10.30
2018-04-17T00:29:24.156Z,10.30
2018-04-17T00:31:52.496Z,10.20
2018-04-17T00:34:20.052Z,10.20
2018-04-17T00:36:47.644Z,10.20
2018-04-17T00:39:15.962Z,10.20
2018-04-17T00:41:43.517Z,10.20
2018-04-17T00:44:11.092Z,10.20
2018-04-17T00:46:38.649Z,10.20
2018-04-17T00:49:06.225Z,10.30
2018-04-17T00:51:33.776Z,10.20
2018-04-17T00:54:01.365Z,10.20
2018-04-17T00:56:28.920Z,10.30
2018-04-17T00:58:57.256Z,10.20
2018-04-17T01:01:25.124Z,10.20
2018-04-17T01:03:52.705Z,10.20
2018-04-17T01:06:20.256Z,10.20
2018-04-17T01:08:47.932Z,10.20
2018-04-17T01:11:15.484Z,10.30
2018-04-17T01:13:43.060Z,10.30
2018-04-17T01:16:12.121Z,10.20
2018-04-17T01:18:39.700Z,10.20
2018-04-17T01:21:07.252Z,10.20
2018-04-17T01:23:34.809Z,10.20
2018-04-17T01:26:02.389Z,10.20
2018-04-17T01:28:29.943Z,10.20
2018-04-17T01:30:57.522Z,10.10
2018-04-17T01:33:25.848Z,10.10
2018-04-17T01:35:53.420Z,10.10
2018-04-17T01:38:20.976Z,10.00
2018-04-17T01:40:48.552Z,10.00
2018-04-17T01:43:16.117Z,10.00
2018-04-17T01:45:43.693Z,10.00
2018-04-17T01:48:11.248Z,10.00
2018-04-17T01:50:38.897Z,10.00
2018-04-17T01:53:06.453Z,10.10
2018-04-17T01:55:34.066Z,10.10
2018-04-17T01:58:01.676Z,10.10
2018-04-17T02:00:29.244Z,10.10
2018-04-17T02:02:56.820Z,10.10
2018-04-17T02:05:24.400Z,10.10
2018-04-17T02:07:51.977Z,10.10
2018-04-17T02:10:19.533Z,10.10
2018-04-17T02:12:47.121Z,10.10
2018-04-17T02:15:14.673Z,10.10
2018-04-17T02:17:42.244Z,10.00
2018-04-17T02:20:09.796Z,10.10
2018-04-17T02:22:37.368Z,10.10
2018-04-17T02:25:04.933Z,10.10
2018-04-17T02:27:32.595Z,10.10
2018-04-17T02:30:01.660Z,10.00
2018-04-17T02:32:29.241Z,10.00
2018-04-17T02:34:56.792Z,10.00
2018-04-17T02:37:24.349Z,10.00
2018-04-17T02:39:51.924Z,10.00
2018-04-17T02:42:19.472Z,10.00
2018-04-17T02:44:47.046Z,10.00
2018-04-17T02:47:14.704Z,10.00
2018-04-17T02:49:42.369Z,10.00
2018-04-17T02:52:09.920Z,10.00
2018-04-17T02:54:37.489Z,9.90
2018-04-17T02:57:05.049Z,10.00
2018-04-17T02:59:33.384Z,9.90
2018-04-17T03:02:00.981Z,9.90
2018-04-17T03:04:28.558Z,9.90
2018-04-17T03:06:56.102Z,9.80
2018-04-17T03:09:23.672Z,9.80
2018-04-17T03:11:52.812Z,9.80
2018-04-17T03:14:20.385Z,9.80
2018-04-17T03:16:47.936Z,9.70
2018-04-17T03:19:15.503Z,9.70
2018-04-17T03:21:43.077Z,9.70
2018-04-17T03:24:10.625Z,9.60
2018-04-17T03:26:38.197Z,9.60
2018-04-17T03:29:05.761Z,9.60
2018-04-17T03:31:33.332Z,9.60
2018-04-17T03:34:00.879Z,9.50
2018-04-17T03:36:28.452Z,9.50
2018-04-17T03:38:56.141Z,9.40
2018-04-17T03:41:24.476Z,9.30
2018-04-17T03:43:52.045Z,9.30
2018-04-17T03:46:19.616Z,9.30
2018-04-17T03:48:47.993Z,9.40
2018-04-17T03:51:15.560Z,9.40
2018-04-17T03:53:43.107Z,9.30
2018-04-17T03:56:11.485Z,9.30
2018-04-17T03:58:39.056Z,9.20
2018-04-17T04:01:07.376Z,9.20
2018-04-17T04:03:35.252Z,9.10
2018-04-17T04:06:02.800Z,9.10
2018-04-17T04:08:30.373Z,9.00
2018-04-17T04:10:57.924Z,9.00
2018-04-17T04:13:25.516Z,8.90
2018-04-17T04:15:53.093Z,8.90
2018-04-17T04:18:33.983Z,8.80
2018-04-17T04:21:14.107Z,8.70
2018-04-17T04:23:53.540Z,8.70
2018-04-17T04:26:32.460Z,8.60
2018-04-17T04:29:00.028Z,8.60
2018-04-17T04:31:27.581Z,8.60
2018-04-17T04:33:55.152Z,8.60
2018-04-17T04:36:22.700Z,8.60
2018-04-17T04:38:50.268Z,8.50
2018-04-17T04:41:17.824Z,8.60
2018-04-17T04:43:45.393Z,8.50
2018-04-17T04:46:13.047Z,8.50
2018-04-17T04:48:40.700Z,8.50
2018-04-17T04:51:08.259Z,8.60
2018-04-17T04:53:35.920Z,8.60
2018-04-17T04:56:03.480Z,8.60
2018-04-17T04:58:31.144Z,8.60
2018-04-17T05:00:58.697Z,8.60
2018-04-17T05:03:26.265Z,8.70
2018-04-17T05:05:53.820Z,8.60
2018-04-17T05:08:21.396Z,8.60
2018-04-17T05:10:49.040Z,8.60
2018-04-17T05:13:16.708Z,8.70
2018-04-17T05:15:44.289Z,8.70
2018-04-17T05:18:12.609Z,8.80
2018-04-17T05:20:40.184Z,8.80
2018-04-17T05:23:08.501Z,9.00
2018-04-17T05:25:36.065Z,9.00
2018-04-17T05:28:04.384Z,9.30
2018-04-17T05:30:31.949Z,9.30
2018-04-17T05:32:59.496Z,9.40
2018-04-17T05:35:27.064Z,9.40
2018-04-17T05:37:54.612Z,9.40
2018-04-17T05:40:22.173Z,9.50
2018-04-17T05:42:49.720Z,9.80
2018-04-17T05:45:17.298Z,10.00
2018-04-17T05:47:44.801Z,10.00
2018-04-17T05:50:12.332Z,10.00
2018-04-17T05:52:39.863Z,10.00
2018-04-17T05:55:07.389Z,9.90
2018-04-17T05:57:35.649Z,10.00
2018-04-17T06:00:03.190Z,10.00
2018-04-17T06:02:30.692Z,10.10
2018-04-17T06:04:58.948Z,10.40
2018-04-17T06:07:26.460Z,10.30
2018-04-17T06:09:53.952Z,10.50
2018-04-17T06:12:21.467Z,10.70
2018-04-17T06:14:48.960Z,10.80
2018-04-17T06:17:16.476Z,10.80
2018-04-17T06:19:43.968Z,11.10
2018-04-17T06:22:11.485Z,11.40
2018-04-17T06:24:38.983Z,11.80
2018-04-17T06:27:06.497Z,12.00
2018-04-17T06:29:33.997Z,12.20
2018-04-17T06:32:01.515Z,12.40
2018-04-17T06:34:29.014Z,12.60
2018-04-17T06:36:56.529Z,12.60
2018-04-17T06:39:24.025Z,12.80
2018-04-17T06:41:51.575Z,13.10
2018-04-17T06:44:19.048Z,13.20
2018-04-17T06:46:46.564Z,13.20
2018-04-17T06:49:14.060Z,13.50
2018-04-17T06:51:41.552Z,13.50
2018-04-17T06:54:09.832Z,13.60
2018-04-17T06:56:38.092Z,13.80
2018-04-17T06:59:05.605Z,13.80
2018-04-17T07:01:33.096Z,14.10
2018-04-17T07:04:00.611Z,14.20
2018-04-17T07:06:28.104Z,14.10
2018-04-17T07:08:55.621Z,14.00
2018-04-17T07:11:23.117Z,14.10
2018-04-17T07:13:50.636Z,14.00
2018-04-17T07:16:18.132Z,14.10
2018-04-17T07:18:45.651Z,14.20
2018-04-17T07:21:13.149Z,14.50
2018-04-17T07:23:40.699Z,14.80
2018-04-17T07:26:08.196Z,14.80
2018-04-17T07:28:35.695Z,15.00
2018-04-17T07:31:03.209Z,15.20
2018-04-17T07:33:30.705Z,15.20
2018-04-17T07:35:58.216Z,15.20
2018-04-17T07:38:25.722Z,15.10
2018-04-17T07:40:53.240Z,15.50
2018-04-17T07:43:20.732Z,15.70
2018-04-17T07:45:48.244Z,15.60
2018-04-17T07:48:27.656Z,15.60
2018-04-17T07:50:55.164Z,15.90
2018-04-17T07:53:23.429Z,16.10
2018-04-17T07:55:50.941Z,16.10
2018-04-17T07:58:18.445Z,16.20
2018-04-17T08:00:45.964Z,16.40
2018-04-17T08:03:13.456Z,16.40
2018-04-17T08:05:40.978Z,16.30
2018-04-17T08:08:08.477Z,16.30
2018-04-17T08:10:35.972Z,16.20
2018-04-17T08:13:03.488Z,16.20
2018-04-17T08:15:30.992Z,16.30
2018-04-17T08:17:58.505Z,16.50
2018-04-17T08:20:25.997Z,16.50
2018-04-17T08:22:53.508Z,16.90
2018-04-17T08:25:21.004Z,16.90
2018-04-17T08:27:49.288Z,17.10
2018-04-17T08:30:16.788Z,17.10
2018-04-17T08:32:44.300Z,17.30
2018-04-17T08:35:11.793Z,17.20
2018-04-17T08:37:39.317Z,17.30
2018-04-17T08:40:06.820Z,17.30
2018-04-17T08:42:34.320Z,17.00
2018-04-17T08:45:02.597Z,17.50
2018-04-17T08:47:31.139Z,17.40
2018-04-17T08:49:58.656Z,17.40
2018-04-17T08:52:26.152Z,17.30
2018-04-17T08:54:53.673Z,17.40
2018-04-17T08:57:21.169Z,17.20
2018-04-17T08:59:48.685Z,16.60
2018-04-17T09:02:16.188Z,16.20
2018-04-17T09:04:43.708Z,16.30
2018-04-17T09:07:11.210Z,16.70
2018-04-17T09:09:38.720Z,17.10
2018-04-17T09:12:06.216Z,17.10
2018-04-17T09:14:33.736Z,17.10
2018-04-17T09:17:01.242Z,17.10
2018-04-17T09:19:28.769Z,17.20
2018-04-17T09:21:56.271Z,17.00
2018-04-17T09:24:23.792Z,17.00
2018-04-17T09:26:51.290Z,17.30
2018-04-17T09:29:18.848Z,17.60
2018-04-17T09:31:46.340Z,17.40
2018-04-17T09:34:13.849Z,17.20
2018-04-17T09:36:41.368Z,17.20
2018-04-17T09:39:08.868Z,17.80
2018-04-17T09:41:36.381Z,18.00
2018-04-17T09:44:03.872Z,18.40
2018-04-17T09:46:31.382Z,18.60
2018-04-17T09:48:58.879Z,19.00
2018-04-17T09:51:26.392Z,19.00
2018-04-17T09:53:54.656Z,19.50
2018-04-17T09:56:23.220Z,19.50
2018-04-17T09:58:51.504Z,19.20
2018-04-17T10:01:21.604Z,19.20
2018-04-17T10:03:49.100Z,18.60
2018-04-17T10:06:17.379Z,18.20
2018-04-17T10:08:45.669Z,17.60
2018-04-17T10:11:13.933Z,17.40
2018-04-17T10:13:41.457Z,17.40
2018-04-17T10:16:08.952Z,17.40
2018-04-17T10:18:37.228Z,17.40
2018-04-17T10:21:04.720Z,17.40
2018-04-17T10:23:32.469Z,17.40
2018-04-17T10:25:59.969Z,17.70
2018-04-17T10:28:27.488Z,17.50
2018-04-17T10:30:54.988Z,17.40
2018-04-17T10:33:22.500Z,17.40
2018-04-17T10:35:49.992Z,17.50
2018-04-17T10:38:17.521Z,17.40
2018-04-17T10:40:45.013Z,17.50
2018-04-17T10:43:12.524Z,17.30
2018-04-17T10:45:40.021Z,17.30
2018-04-17T10:48:07.524Z,17.60
2018-04-17T10:50:35.805Z,17.90
2018-04-17T10:53:03.305Z,17.90
2018-04-17T10:55:30.818Z,18.20
2018-04-17T10:57:59.076Z,19.30
2018-04-17T11:00:27.360Z,18.70
2018-04-17T11:02:55.621Z,18.20
2018-04-17T11:05:23.144Z,18.20
2018-04-17T11:07:50.646Z,18.00
2018-04-17T11:10:18.952Z,18.00
2018-04-17T11:12:46.450Z,17.90
2018-04-17T11:15:13.960Z,17.80
2018-04-17T11:17:41.460Z,17.90
2018-04-17T11:20:08.972Z,17.90
2018-04-17T11:22:36.469Z,17.90
2018-04-17T11:25:03.985Z,17.90
2018-04-17T11:27:32.244Z,18.00
2018-04-17T11:30:00.537Z,18.20
2018-04-17T11:32:28.802Z,18.40
2018-04-17T11:34:57.065Z,18.40
2018-04-17T11:37:24.577Z,18.40
2018-04-17T11:39:52.080Z,18.40
2018-04-17T11:42:19.597Z,18.30
2018-04-17T11:44:47.093Z,18.50
2018-04-17T11:47:14.604Z,18.50
2018-04-17T11:49:42.093Z,18.30
2018-04-17T11:52:09.618Z,18.20
2018-04-17T11:54:37.116Z,18.10
2018-04-17T11:57:04.638Z,18.00
2018-04-17T11:59:32.136Z,17.70
2018-04-17T12:01:59.652Z,17.60
2018-04-17T12:04:27.208Z,17.50
2018-04-17T12:06:54.707Z,17.60
2018-04-17T12:09:22.217Z,17.50
2018-04-17T12:11:49.712Z,17.50
2018-04-17T12:14:17.224Z,17.50
2018-04-17T12:16:44.721Z,17.80
2018-04-17T12:19:12.224Z,18.20
2018-04-17T12:21:40.485Z,19.30
2018-04-17T12:24:07.997Z,19.30
2018-04-17T12:26:35.495Z,19.20
2018-04-17T12:29:03.016Z,19.80
2018-04-17T12:31:30.512Z,20.20
2018-04-17T12:33:58.015Z,20.30
2018-04-17T12:36:25.537Z,19.80
2018-04-17T12:38:53.800Z,19.10
2018-04-17T12:41:21.312Z,19.00
2018-04-17T12:43:49.121Z,19.10
2018-04-17T12:46:16.637Z,18.90
2018-04-17T12:48:44.370Z,18.80
2018-04-17T12:51:12.657Z,18.60
2018-04-17T12:53:40.155Z,18.60
2018-04-17T12:56:07.677Z,18.50
2018-04-17T12:58:35.176Z,18.40
2018-04-17T13:01:02.718Z,18.30
2018-04-17T13:03:30.205Z,18.10
2018-04-17T13:05:57.700Z,18.00
2018-04-17T13:08:25.212Z,18.30
2018-04-17T13:10:52.704Z,18.60
2018-04-17T13:13:20.985Z,18.90
2018-04-17T13:15:49.252Z,19.00
2018-04-17T13:18:17.539Z,19.50
2018-04-17T13:20:45.802Z,19.60
2018-04-17T13:23:14.085Z,19.30
2018-04-17T13:25:42.345Z,19.00
2018-04-17T13:28:09.861Z,18.90
2018-04-17T13:30:37.376Z,18.60
2018-04-17T13:33:05.654Z,19.00
2018-04-17T13:35:33.916Z,19.00
2018-04-17T13:38:01.436Z,19.00
2018-04-17T13:40:28.933Z,19.20
2018-04-17T13:42:56.447Z,19.40
2018-04-17T13:45:23.940Z,19.10
2018-04-17T13:47:51.434Z,19.40
2018-04-17T13:50:18.965Z,19.60
2018-04-17T13:52:46.465Z,19.40
2018-04-17T13:55:13.986Z,19.60
2018-04-17T13:57:42.252Z,19.80
2018-04-17T14:00:09.770Z,19.80
2018-04-17T14:02:37.264Z,19.90
2018-04-17T14:05:04.789Z,20.00
2018-04-17T14:07:32.284Z,20.10
2018-04-17T14:09:59.877Z,20.10
2018-04-17T14:12:27.373Z,19.90
2018-04-17T14:14:54.885Z,20.00
2018-04-17T14:17:23.164Z,19.60
2018-04-17T14:19:50.684Z,19.50
2018-04-17T14:22:18.192Z,19.20
2018-04-17T14:24:45.688Z,19.20
2018-04-17T14:27:13.201Z,19.00
2018-04-17T14:29:40.696Z,19.20
2018-04-17T14:32:08.204Z,19.40
2018-04-17T14:34:36.464Z,19.50
2018-04-17T14:37:04.376Z,19.50
2018-04-17T14:39:31.869Z,19.50
2018-04-17T14:41:59.381Z,19.60
2018-04-17T14:44:26.878Z,19.60
2018-04-17T14:46:54.388Z,19.50
2018-04-17T14:49:22.644Z,19.20
2018-04-17T14:51:50.925Z,19.20
2018-04-17T14:54:19.191Z,18.80
2018-04-17T14:56:47.484Z,18.80
2018-04-17T14:59:15.744Z,18.80
2018-04-17T15:01:43.257Z,18.70
2018-04-17T15:04:10.756Z,18.80
2018-04-17T15:06:39.046Z,18.90
2018-04-17T15:09:07.304Z,19.20
2018-04-17T15:11:34.820Z,19.10
2018-04-17T15:14:02.321Z,19.30
2018-04-17T15:16:29.812Z,19.20
2018-04-17T15:18:57.324Z,18.50
2018-04-17T15:21:24.825Z,18.60
2018-04-17T15:23:52.342Z,18.80
2018-04-17T15:26:19.832Z,18.90
2018-04-17T15:28:48.120Z,18.90
2018-04-17T15:31:15.617Z,18.90
2018-04-17T15:33:43.128Z,18.90
2018-04-17T15:36:11.392Z,18.90
2018-04-17T15:38:39.673Z,19.00
2018-04-17T15:41:07.933Z,19.40
2018-04-17T15:43:35.450Z,19.30
2018-04-17T15:46:02.945Z,19.40
2018-04-17T15:48:30.464Z,19.50
2018-04-17T15:50:57.960Z,19.40
2018-04-17T15:53:25.469Z,19.40
2018-04-17T15:55:52.981Z,19.50
2018-04-17T15:58:20.478Z,19.40
2018-04-17T16:00:47.993Z,18.80
2018-04-17T16:03:15.524Z,18.80
2018-04-17T16:05:43.024Z,18.80
2018-04-17T16:08:11.289Z,18.50
2018-04-17T16:10:38.804Z,18.40
2018-04-17T16:13:06.326Z,18.30
2018-04-17T16:15:34.613Z,18.30
2018-04-17T16:18:02.111Z,18.20
2018-04-17T16:20:29.634Z,18.10
2018-04-17T16:22:57.129Z,18.00
2018-04-17T16:25:24.640Z,18.00
2018-04-17T16:27:52.468Z,18.00
2018-04-17T16:30:19.966Z,18.10
2018-04-17T16:32:47.480Z,18.00
2018-04-17T16:35:14.979Z,18.10
2018-04-17T16:37:43.264Z,18.10
2018-04-17T16:40:10.761Z,18.00
2018-04-17T16:42:38.276Z,18.00
2018-04-17T16:45:05.786Z,17.90
2018-04-17T16:47:33.309Z,18.00
2018-04-17T16:50:00.808Z,17.80
2018-04-17T16:52:28.340Z,17.70
2018-04-17T16:54:55.835Z,17.70
2018-04-17T16:57:23.368Z,17.60
2018-04-17T16:59:50.869Z,17.70
2018-04-17T17:02:19.152Z,17.60
2018-04-17T17:04:47.416Z,17.60
2018-04-17T17:07:15.713Z,17.40
2018-04-17T17:09:43.209Z,17.40
2018-04-17T17:12:10.709Z,17.40
2018-04-17T17:14:38.987Z,17.20
2018-04-17T17:17:07.276Z,17.10
2018-04-17T17:19:34.791Z,17.10
2018-04-17T17:22:02.292Z,17.00
2018-04-17T17:24:29.809Z,16.90
2018-04-17T17:26:57.304Z,16.80
2018-04-17T17:29:24.828Z,16.90
2018-04-17T17:31:52.329Z,16.70
2018-04-17T17:34:19.850Z,16.60
2018-04-17T17:36:47.349Z,16.40
2018-04-17T17:39:14.865Z,16.20
2018-04-17T17:41:42.364Z,16.10
2018-04-17T17:44:09.889Z,16.00
2018-04-17T17:46:38.160Z,16.00
2018-04-17T17:49:05.684Z,15.90
2018-04-17T17:51:33.185Z,15.80
2018-04-17T17:54:00.684Z,15.60
2018-04-17T17:56:28.201Z,15.40
2018-04-17T17:58:55.801Z,15.30
2018-04-17T18:01:23.316Z,15.20
2018-04-17T18:03:50.862Z,15.10
2018-04-17T18:06:18.340Z,14.90
2018-04-17T18:08:46.604Z,14.70
2018-04-17T18:11:14.172Z,14.70
2018-04-17T18:13:41.637Z,14.60
2018-04-17T18:16:09.916Z,14.50
2018-04-17T18:18:38.180Z,14.40
2018-04-17T18:21:06.465Z,14.30
2018-04-17T18:23:34.728Z,14.20
2018-04-17T18:26:02.244Z,14.20
2018-04-17T18:28:29.742Z,14.10
2018-04-17T18:30:57.285Z,14.00
2018-04-17T18:33:24.780Z,13.80
2018-04-17T18:35:53.064Z,13.80
2018-04-17T18:38:20.743Z,13.80
2018-04-17T18:40:48.289Z,13.60
2018-04-17T18:43:15.785Z,13.30
2018-04-17T18:45:43.400Z,13.20
2018-04-17T18:48:10.902Z,13.00
2018-04-17T18:50:38.401Z,13.10
2018-04-17T18:53:06.680Z,12.80
2018-04-17T18:55:34.944Z,12.70
2018-04-17T18:58:02.457Z,12.70
2018-04-17T19:00:29.948Z,12.60
2018-04-17T19:02:57.464Z,12.60
2018-04-17T19:05:25.001Z,12.50
2018-04-17T19:07:52.516Z,12.50
2018-04-17T19:10:20.837Z,12.30
2018-04-17T19:12:48.397Z,12.30
2018-04-17T19:15:15.892Z,12.20
2018-04-17T19:17:43.416Z,12.20
2018-04-17T19:20:10.922Z,12.10
2018-04-17T19:22:38.435Z,12.00
2018-04-17T19:25:05.933Z,11.90
2018-04-17T19:27:33.444Z,11.90
2018-04-17T19:30:00.949Z,11.90
2018-04-17T19:32:28.473Z,11.90
2018-04-17T19:34:55.972Z,11.90
2018-04-17T19:37:23.485Z,11.90
2018-04-17T19:39:51.037Z,11.90
2018-04-17T19:42:18.552Z,11.80
2018-04-17T19:44:47.554Z,11.80
2018-04-17T19:47:16.604Z,11.70
2018-04-17T19:49:44.105Z,11.70
2018-04-17T19:52:11.599Z,11.60
2018-04-17T19:54:39.120Z,11.60
2018-04-17T19:57:06.673Z,11.50
2018-04-17T19:59:35.016Z,11.60
2018-04-17T20:02:02.549Z,11.50
2018-04-17T20:04:30.060Z,11.40
2018-04-17T20:06:57.663Z,11.40
2018-04-17T20:09:25.211Z,11.30
2018-04-17T20:11:52.693Z,11.30
2018-04-17T20:14:20.209Z,11.30
2018-04-17T20:16:47.705Z,11.20
2018-04-17T20:19:15.261Z,11.20
2018-04-17T20:21:42.768Z,11.10
2018-04-17T20:24:10.286Z,11.10
2018-04-17T20:26:37.784Z,11.10
2018-04-17T20:29:05.300Z,11.10
2018-04-17T20:31:32.852Z,11.10
2018-04-17T20:34:00.368Z,11.00
2018-04-17T20:36:27.862Z,10.90
2018-04-17T20:38:55.357Z,10.80
2018-04-17T20:41:22.869Z,10.80
2018-04-17T20:43:51.141Z,10.70
2018-04-17T20:46:19.421Z,10.70
2018-04-17T20:48:47.688Z,10.70
2018-04-17T20:51:15.973Z,10.60
2018-04-17T20:53:44.233Z,10.60
2018-04-17T20:56:11.745Z,10.60
2018-04-17T20:58:39.248Z,10.60
2018-04-17T21:01:06.803Z,10.60
2018-04-17T21:03:34.280Z,10.60
2018-04-17T21:06:02.561Z,10.60
2018-04-17T21:08:30.821Z,10.60
2018-04-17T21:10:59.100Z,10.50
2018-04-17T21:13:27.361Z,10.50
2018-04-17T21:15:54.876Z,10.50
2018-04-17T21:18:22.373Z,10.50
2018-04-17T21:20:49.890Z,10.50
2018-04-17T21:23:17.385Z,10.50
2018-04-17T21:25:44.901Z,10.40
2018-04-17T21:28:12.396Z,10.40
2018-04-17T21:30:39.900Z,10.30
2018-04-17T21:33:07.468Z,10.20
2018-04-17T21:35:35.029Z,10.10
2018-04-17T21:38:02.548Z,10.10
2018-04-17T21:40:30.137Z,10.00
2018-04-17T21:42:57.652Z,10.00
2018-04-17T21:45:25.149Z,10.10
2018-04-17T21:47:53.428Z,10.00
2018-04-17T21:50:20.921Z,9.90
2018-04-17T21:52:48.452Z,9.90
2018-04-17T21:55:16.008Z,9.80
2018-04-17T21:57:43.528Z,9.80
2018-04-17T22:00:11.020Z,9.80
2018-04-17T22:02:38.533Z,9.80
2018-04-17T22:05:06.027Z,9.80
2018-04-17T22:07:34.312Z,9.80
2018-04-17T22:10:01.801Z,9.80
2018-04-17T22:12:29.291Z,9.90
2018-04-17T22:14:57.604Z,9.90
2018-04-17T22:17:25.160Z,9.80
2018-04-17T22:19:52.665Z,9.80
2018-04-17T22:22:20.153Z,9.70
2018-04-17T22:24:48.435Z,9.50
2018-04-17T22:27:16.693Z,9.40
2018-04-17T22:29:44.969Z,9.40
2018-04-17T22:32:12.460Z,9.40
2018-04-17T22:34:39.973Z,9.40
2018-04-17T22:37:07.464Z,9.30
2018-04-17T22:39:35.745Z,9.20
2018-04-17T22:42:04.014Z,9.10
2018-04-17T22:44:32.296Z,9.20
2018-04-17T22:47:00.557Z,9.10
2018-04-17T22:49:28.857Z,9.10
2018-04-17T22:51:56.352Z,9.10
2018-04-17T22:54:23.844Z,9.10
2018-04-17T22:56:52.126Z,9.10
2018-04-17T22:59:19.629Z,9.00
2018-04-17T23:01:47.156Z,9.00
2018-04-17T23:04:15.412Z,8.90
2018-04-17T23:06:43.694Z,8.80
2018-04-17T23:09:11.997Z,8.80
2018-04-17T23:11:39.526Z,8.80
2018-04-17T23:14:07.113Z,8.80
2018-04-17T23:16:34.676Z,8.80
2018-04-17T23:19:02.250Z,8.70
2018-04-17T23:21:29.768Z,8.70
2018-04-17T23:23:58.033Z,8.70
2018-04-17T23:26:27.057Z,8.60
2018-04-17T23:28:55.316Z,8.60
2018-04-17T23:31:23.595Z,8.60
2018-04-17T23:33:51.857Z,8.50
2018-04-17T23:36:19.445Z,8.50
2018-04-17T23:38:47.720Z,8.50
2018-04-17T23:41:15.288Z,8.40
2018-04-17T23:43:42.804Z,8.40
2018-04-17T23:46:10.300Z,8.40
2018-04-17T23:48:37.817Z,8.40
2018-04-17T23:51:05.313Z,8.40
2018-04-17T23:53:32.872Z,8.30
2018-04-17T23:56:00.432Z,8.30
2018-04-17T23:58:27.950Z,8.30
